РПИ Душанбе

Руководство

Evgeny Vygornitsky*

Куратор
Инструкторы РПИ
Evgeny Vygornitsky (Supervisor)
Sergey Balandin (Senior Instructor)
Входит в состав
Центральная Азия

Диспетчеры РПИ

Диспетчер Рейтинг Допуски *

Аэропорты РПИ

ICAO Город Название Погода
UTDD Душанбе Душанбе UTDD 240930Z 11004MPS 080V140 9999 FEW066CB SCT110 24/15 Q1014 R09/19//60 NOSIG RMK QFE692/0923
UTDL Худжанд Худжанд UTDL 240930Z 23003MPS 9000 -SHRA SCT050CB OVC086 20/17 Q1013 R26/190350 NOSIG RMK QFE722/0963